Latest Weather Observations for Roxby Downs

IDS60801

Issued at 1:01 am CST Monday 24 April 2017 (issued every 30 minutes, with the page automatically refreshed every 10 minutes)

About weather observations | Map of weather stations | Latest weather observations for SA | Other Formats
Station Details ID: 016096 Name: OLYMPIC DAM AERODROME Lat: -30.48 Lon: 136.88 Height: 98.5 m
Data from the previous 72 hours. | See also: Recent months at Roxby Downs
Date/Time
CST
Temp
°C
App
Temp
°C
Dew
Point
°C
Rel
Hum
%
Delta-T
°C
Wind Press
QNH
hPa
Press
MSL
hPa
Rain since
9am
mm
Dir  Spd
km/h
Gust
km/h
Spd
kts
Gust
kts
24/01:00am 19.3 20.3 17.8 91 0.9 E 9 11 5 6 1018.0 1017.7 0.0
24/12:30am 19.1 20.1 17.8 92 0.8 ENE 9 11 5 6 1018.2 1017.9 0.0
24/12:00am 18.9 21.7 17.9 94 0.6 CALM 0 0 0 0 1018.7 1018.4 0.0
 
Date/Time
CST
Temp
°C
App
Temp
°C
Dew
Point
°C
Rel
Hum
%
Delta-T
°C
Wind Press
QNH
hPa
Press
MSL
hPa
Rain since
9am
mm
Dir  Spd
km/h
Gust
km/h
Spd
kts
Gust
kts
23/11:30pm 19.1 21.9 17.9 93 0.7 CALM 0 0 0 0 1018.9 1018.6 0.0
23/11:00pm 19.4 22.3 18.1 92 0.8 CALM 0 0 0 0 1019.0 1018.7 0.0
23/10:30pm 19.7 22.5 18.0 90 1.1 CALM 0 0 0 0 1019.2 1018.9 0.0
23/10:00pm 20.1 23.0 18.2 89 1.2 CALM 0 0 0 0 1019.2 1018.9 0.0
23/09:30pm 20.6 23.6 18.5 88 1.3 CALM 0 0 0 0 1019.4 1019.1 0.0
23/09:00pm 20.9 23.9 18.5 86 1.5 CALM 0 0 0 0 1019.3 1019.0 0.0
23/08:30pm 21.3 24.2 18.3 83 1.9 CALM 0 0 0 0 1019.0 1018.7 0.0
23/08:00pm 21.7 25.1 19.3 86 1.5 CALM 0 0 0 0 1019.1 1018.8 0.0
23/07:30pm 22.3 25.9 19.7 85 1.7 CALM 0 0 0 0 1019.0 1018.7 0.0
23/07:00pm 22.7 25.6 18.3 76 2.8 CALM 0 0 0 0 1018.7 1018.4 0.0
23/06:30pm 23.0 25.7 17.7 72 3.3 CALM 0 0 0 0 1018.3 1018.0 0.0
23/06:00pm 23.7 25.9 16.5 64 4.4 CALM 0 0 0 0 1018.1 1017.8 0.0
23/05:30pm 24.8 25.3 15.1 54 5.8 SW 6 9 3 5 1018.0 1017.7 0.0
23/05:00pm 25.6 26.3 15.6 54 6.1 SW 6 9 3 5 1018.0 1017.7 0.0
23/04:30pm 25.4 25.6 15.7 55 5.9 SSW 9 17 5 9 1018.1 1017.8 0.0
23/04:00pm 26.4 26.8 15.4 50 6.7 SSW 7 11 4 6 1018.1 1017.8 0.0
23/03:30pm 26.1 27.9 16.4 55 6.0 S 2 9 1 5 1018.2 1017.9 0.0
23/03:00pm 25.5 25.5 15.2 53 6.2 S 9 15 5 8 1018.3 1018.0 0.0
23/02:30pm 25.7 26.3 15.7 54 6.1 SE 7 11 4 6 1018.3 1018.0 0.0
23/02:00pm 25.6 26.4 15.9 55 5.9 NW 6 9 3 5 1018.6 1018.3 0.0
23/01:30pm 24.8 25.7 16.0 58 5.4 NW 6 11 3 6 1018.8 1018.5 0.0
23/01:00pm 24.0 24.9 16.0 61 4.9 S 6 9 3 5 1019.4 1019.1 0.0
23/12:30pm 23.6 25.5 16.6 65 4.3 S 2 9 1 5 1019.9 1019.6 0.0
23/12:00pm 23.1 24.3 16.9 68 3.8 NW 6 9 3 5 1020.4 1020.1 0.0
23/11:30am 22.6 23.6 16.9 70 3.5 WNW 7 11 4 6 1020.8 1020.5 0.0
23/11:00am 22.8 23.6 16.4 67 3.9 WNW 7 11 4 6 1021.0 1020.7 0.0
23/10:30am 23.1 23.8 16.2 65 4.2 NNE 7 13 4 7 1021.0 1020.7 0.0
23/10:00am 22.2 23.7 16.7 71 3.4 E 4 9 2 5 1021.1 1020.8 0.0
23/09:57am 22.2 23.8 16.9 72 3.3 ESE 4 9 2 5 1021.1 1020.8 0.0
23/09:30am 21.0 22.8 17.4 80 2.2 S 4 7 2 4 1021.3 1021.0 0.0
23/09:00am 19.5 22.3 18.0 91 0.9 CALM 0 0 0 0 1021.4 1021.1 0.2
23/08:33am 19.0 22.0 18.5 97 0.3 CALM 0 6 0 3 1021.3 1021.0 0.2
23/08:30am 18.9 21.6 18.6 98 0.2 SE 2 6 1 3 1021.3 1021.0 0.2
23/08:00am 18.5 20.3 18.2 98 0.2 SE 6 9 3 5 1021.0 1020.7 0.2
23/07:30am 18.4 19.9 18.1 98 0.2 SE 7 9 4 5 1020.6 1020.3 0.2
23/07:13am 18.4 21.3 18.1 98 0.2 CALM 0 0 0 0 1020.4 1020.1 0.2
23/07:00am 18.5 20.6 18.2 98 0.2 S 4 6 2 3 1020.3 1020.0 0.2
23/06:30am 18.4 21.3 18.1 98 0.2 CALM 0 0 0 0 1020.0 1019.7 0.2
23/06:00am 18.3 19.8 18.0 98 0.2 S 7 9 4 5 1019.9 1019.6 0.2
23/05:31am 18.0 19.8 17.5 97 0.3 SSW 4 7 2 4 1019.7 1019.4 0.2
23/05:30am 18.0 19.8 17.5 97 0.3 SW 4 7 2 4 1019.7 1019.4 0.2
23/05:00am 17.8 20.1 16.8 94 0.6 CALM 0 0 0 0 1019.5 1019.2 0.2
23/04:30am 18.3 20.7 17.1 93 0.7 CALM 0 0 0 0 1019.5 1019.2 0.2
23/04:00am 18.7 21.3 17.5 93 0.7 CALM 0 0 0 0 1019.5 1019.2 0.2
23/03:47am 19.0 20.6 17.8 93 0.7 ESE 6 6 3 3 1019.5 1019.2 0.2
23/03:30am 19.3 21.1 18.3 94 0.6 ESE 6 7 3 4 1019.4 1019.1 0.2
23/03:09am 19.5 22.5 18.5 94 0.6 CALM 0 0 0 0 1019.6 1019.3 0.2
23/03:00am 19.4 22.3 18.2 93 0.7 CALM 0 0 0 0 1019.6 1019.3 0.2
23/02:30am 19.4 22.4 18.4 94 0.6 CALM 0 0 0 0 1019.9 1019.6 0.2
23/02:13am 19.3 22.3 18.5 95 0.5 CALM 0 0 0 0 1019.9 1019.6 0.2
23/02:00am 19.3 22.3 18.5 95 0.5 CALM 0 0 0 0 1020.0 1019.7 0.2
23/01:30am 19.2 22.1 18.2 94 0.6 CALM 0 0 0 0 1020.0 1019.7 0.2
23/01:00am 19.4 22.4 18.4 94 0.6 CALM 0 0 0 0 1020.1 1019.8 0.2
23/12:30am 19.3 22.2 18.3 94 0.6 CALM 0 0 0 0 1020.0 1019.7 0.2
23/12:00am 19.4 22.4 18.4 94 0.6 CALM 0 0 0 0 1020.2 1019.9 0.2
 
Date/Time
CST
Temp
°C
App
Temp
°C
Dew
Point
°C
Rel
Hum
%
Delta-T
°C
Wind Press
QNH
hPa
Press
MSL
hPa
Rain since
9am
mm
Dir  Spd
km/h
Gust
km/h
Spd
kts
Gust
kts
22/11:34pm 19.3 22.2 18.1 93 0.7 CALM 0 0 0 0 1020.1 1019.8 0.2
22/11:30pm 19.3 22.2 18.1 93 0.7 CALM 0 0 0 0 1020.1 1019.8 0.2
22/11:00pm 19.4 21.0 17.9 91 0.9 SE 6 7 3 4 1020.3 1020.0 0.2
22/10:30pm 19.6 21.3 18.6 94 0.6 SE 7 11 4 6 1020.4 1020.1 0.2
22/10:00pm 19.6 21.1 18.8 95 0.5 SE 9 11 5 6 1020.5 1020.2 0.2
22/09:30pm 19.7 21.0 18.5 93 0.7 SSE 9 13 5 7 1020.5 1020.2 0.2
22/09:00pm 20.0 21.6 18.3 90 1.1 S 7 9 4 5 1020.4 1020.1 0.2
22/08:30pm 20.5 22.0 18.1 86 1.5 S 7 9 4 5 1020.3 1020.0 0.2
22/08:00pm 20.7 23.3 18.3 86 1.5 WSW 2 7 1 4 1020.3 1020.0 0.2
22/07:30pm 20.8 23.0 19.1 90 1.1 N 6 7 3 4 1020.1 1019.8 0.2
22/07:00pm 21.2 23.3 18.0 82 2.0 SSW 4 7 2 4 1019.8 1019.5 0.2
22/06:30pm 21.8 22.3 17.4 76 2.7 SSE 11 15 6 8 1019.6 1019.3 0.2
22/06:00pm 22.2 22.2 17.1 73 3.1 S 13 19 7 10 1019.2 1018.9 0.2
22/05:30pm 22.6 22.5 16.9 70 3.5 SSW 13 15 7 8 1018.9 1018.6 0.2
22/05:00pm 23.4 23.6 16.7 66 4.1 SSW 11 17 6 9 1018.9 1018.6 0.2
22/04:30pm 23.2 22.8 17.2 69 3.7 SSW 15 20 8 11 1018.8 1018.5 0.2
22/04:00pm 23.1 23.1 17.1 69 3.7 S 13 17 7 9 1018.6 1018.3 0.2
22/03:30pm 23.6 24.4 17.3 67 3.9 SW 9 13 5 7 1018.7 1018.4 0.2
22/03:00pm 23.3 23.6 17.1 68 3.8 S 11 19 6 10 1018.6 1018.3 0.2
22/02:30pm 22.5 23.3 17.2 72 3.3 SSW 9 15 5 8 1018.8 1018.5 0.2
22/02:00pm 22.1 22.2 17.5 75 2.9 SSW 13 15 7 8 1019.1 1018.8 0.2
22/01:30pm 21.7 21.7 17.1 75 2.8 SW 13 20 7 11 1019.4 1019.1 0.2
22/01:21pm 21.7 21.8 17.5 77 2.6 SW 13 20 7 11 1019.5 1019.2 0.2
22/01:00pm 21.7 21.7 17.3 76 2.7 SSW 13 19 7 10 1019.7 1019.4 0.2
22/12:30pm 21.1 21.2 17.5 80 2.2 SSW 13 17 7 9 1019.9 1019.6 0.2
22/12:00pm 20.9 22.0 17.9 83 1.9 S 9 15 5 8 1020.5 1020.2 0.2
22/11:30am 20.4 21.4 17.8 85 1.6 SSW 9 13 5 7 1021.0 1020.7 0.2
22/11:00am 20.3 21.7 18.6 90 1.1 SSW 9 13 5 7 1021.3 1021.0 0.2
22/10:30am 20.0 20.9 18.3 90 1.1 SSW 11 13 6 7 1021.4 1021.1 0.2
22/10:00am 19.8 20.9 18.1 90 1.1 SSW 9 11 5 6 1021.4 1021.1 0.2
22/09:30am 19.4 21.0 18.2 93 0.7 S 7 11 4 6 1021.5 1021.2 0.0
22/09:17am 19.2 22.0 18.0 93 0.7 CALM 0 6 0 3 1021.5 1021.2 0.0
22/09:00am 18.8 21.1 17.6 93 0.7 S 2 7 1 4 1021.4 1021.1 16.8
22/08:30am 18.6 20.0 17.8 95 0.5 SE 7 9 4 5 1021.2 1020.9 16.8
22/08:05am 18.2 19.7 17.6 96 0.4 SE 6 7 3 4 1021.3 1021.0 16.8
22/08:00am 18.2 19.5 17.6 96 0.4 SE 7 9 4 5 1021.3 1021.0 16.8
22/07:30am 18.2 19.5 17.6 96 0.4 ESE 7 11 4 6 1021.0 1020.7 16.8
22/07:00am 18.2 19.0 17.4 95 0.5 ESE 9 11 5 6 1020.5 1020.2 16.8
22/06:30am 18.2 19.7 17.7 97 0.3 SE 6 7 3 4 1020.4 1020.1 16.8
22/06:00am 18.2 19.6 17.7 97 0.3 SSE 7 11 4 6 1020.0 1019.7 16.8
22/05:49am 18.1 19.4 17.6 97 0.3 SSE 7 9 4 5 1020.0 1019.7 16.8
22/05:47am 18.2 19.6 17.7 97 0.3 SSE 7 9 4 5 1020.0 1019.7 16.8
22/05:30am 18.0 18.9 17.5 97 0.3 SE 9 13 5 7 1019.7 1019.4 16.8
22/05:28am 18.0 18.9 17.5 97 0.3 SSE 9 11 5 6 1019.7 1019.4 16.8
22/05:00am 18.1 19.1 17.8 98 0.2 SE 9 11 5 6 1019.5 1019.2 16.8
22/04:30am 18.2 19.3 17.9 98 0.2 SSE 9 13 5 7 1019.5 1019.2 16.2
22/04:24am 18.1 19.1 17.8 98 0.2 SSE 9 13 5 7 1019.4 1019.1 16.0
22/04:03am 18.0 19.5 17.5 97 0.3 S 6 7 3 4 1019.6 1019.3 15.0
22/04:00am 18.0 19.5 17.5 97 0.3 SSE 6 9 3 5 1019.6 1019.3 14.8
22/03:30am 18.4 20.4 17.9 97 0.3 ESE 4 13 2 7 1019.6 1019.3 13.4
22/03:07am 18.3 18.5 17.7 96 0.4 E 13 20 7 11 1019.6 1019.3 12.4
22/03:00am 18.3 18.1 17.7 96 0.4 E 15 20 8 11 1019.4 1019.1 12.2
22/02:37am 19.3 20.5 19.0 98 0.2 SE 11 19 6 10 1019.4 1019.1 10.8
22/02:30am 19.4 20.5 18.9 97 0.3 SE 11 17 6 9 1019.4 1019.1 9.0
22/02:00am 19.6 21.5 18.9 96 0.4 SSE 7 11 4 6 1019.6 1019.3 2.8
22/01:55am 19.7 21.6 19.0 96 0.4 S 7 11 4 6 1019.6 1019.3 2.4
22/01:52am 19.7 21.2 19.0 96 0.4 S 9 11 5 6 1019.6 1019.3 1.6
22/01:33am 19.9 22.1 19.2 96 0.4 S 6 9 3 5 1019.7 1019.4 1.6
22/01:30am 19.9 22.5 19.2 96 0.4 SSW 4 9 2 5 1019.7 1019.4 1.2
22/01:00am 20.0 23.4 19.3 96 0.4 CALM 0 0 0 0 1020.0 1019.7 1.0
22/12:30am 20.1 23.5 19.4 96 0.4 CALM 0 0 0 0 1020.1 1019.8 0.8
22/12:00am 20.2 22.5 19.5 96 0.4 SSW 6 7 3 4 1020.2 1019.9 0.2
 
Date/Time
CST
Temp
°C
App
Temp
°C
Dew
Point
°C
Rel
Hum
%
Delta-T
°C
Wind Press
QNH
hPa
Press
MSL
hPa
Rain since
9am
mm
Dir  Spd
km/h
Gust
km/h
Spd
kts
Gust
kts
21/11:50pm 20.3 22.7 19.6 96 0.4 SW 6 9 3 5 1020.4 1020.1 0.2
21/11:30pm 20.5 22.8 19.5 94 0.6 W 6 9 3 5 1020.4 1020.1 0.2
21/11:00pm 20.7 24.3 19.7 94 0.6 CALM 0 0 0 0 1020.7 1020.4 0.0
21/10:50pm 20.7 24.3 19.7 94 0.6 CALM 0 0 0 0 1020.8 1020.5 0.0
21/10:32pm 20.8 24.3 19.6 93 0.8 CALM 0 2 0 1 1021.0 1020.7 0.0
21/10:30pm 20.8 24.3 19.6 93 0.8 CALM 0 6 0 3 1021.0 1020.7 0.0
21/10:17pm 20.9 23.2 19.4 91 1.0 NNW 6 7 3 4 1021.1 1020.8 0.0
21/10:00pm 20.9 22.9 19.2 90 1.1 NNW 7 11 4 6 1021.1 1020.8 0.0
21/09:51pm 21.0 23.1 19.3 90 1.1 NNW 7 11 4 6 1021.1 1020.8 0.0
21/09:30pm 21.0 22.6 19.1 89 1.2 NNW 9 11 5 6 1021.1 1020.8 0.0
21/09:00pm 21.4 22.7 19.3 88 1.3 N 11 17 6 9 1021.0 1020.7 0.0
21/08:30pm 22.0 24.0 19.2 84 1.8 N 7 11 4 6 1020.7 1020.4 0.0
21/08:00pm 21.9 25.2 19.1 84 1.8 CALM 0 0 0 0 1020.5 1020.2 0.0
21/07:30pm 21.8 25.1 19.2 85 1.6 CALM 0 0 0 0 1020.3 1020.0 0.0
21/07:00pm 22.0 25.3 19.0 83 1.9 CALM 0 0 0 0 1020.2 1019.9 0.0
21/06:30pm 22.2 24.4 18.4 79 2.4 SSW 4 7 2 4 1019.9 1019.6 0.0
21/06:00pm 22.4 24.0 18.2 77 2.6 SSE 7 9 4 5 1019.5 1019.2 0.0
21/05:30pm 22.7 24.1 17.8 74 3.1 SE 7 9 4 5 1019.1 1018.8 0.0
21/05:00pm 22.9 23.5 17.6 72 3.3 SSE 11 13 6 7 1019.2 1018.9 0.0
21/04:30pm 23.0 24.1 18.1 74 3.1 S 9 13 5 7 1019.2 1018.9 0.0
21/04:00pm 23.1 23.4 18.0 73 3.2 S 13 15 7 8 1019.0 1018.7 0.0
21/03:30pm 23.5 23.8 17.9 71 3.5 S 13 17 7 9 1019.0 1018.7 0.0
21/03:00pm 23.3 23.8 18.4 74 3.1 S 13 20 7 11 1019.0 1018.7 0.0
21/02:30pm 23.4 24.2 18.1 72 3.3 SSE 11 17 6 9 1018.9 1018.6 0.0
21/02:00pm 23.4 24.2 18.1 72 3.3 SE 11 17 6 9 1019.0 1018.7 0.0
21/01:30pm 22.9 22.9 18.0 74 3.1 SE 15 20 8 11 1019.3 1019.0 0.0
21/01:00pm 23.0 22.7 18.3 75 3.0 SSE 17 20 9 11 1019.6 1019.3 0.0
21/12:48pm 23.1 22.9 18.4 75 3.0 SSE 17 22 9 12 1019.6 1019.3 0.0
21/12:30pm 22.8 22.1 18.3 76 2.8 SSE 19 24 10 13 1019.8 1019.5 0.0
21/12:00pm 22.6 22.8 18.6 78 2.5 SSE 15 19 8 10 1020.4 1020.1 0.0
21/11:30am 22.2 22.1 18.8 81 2.1 SSE 17 24 9 13 1020.6 1020.3 0.0
21/11:04am 22.5 22.6 19.9 85 1.7 SE 19 26 10 14 1020.5 1020.2 0.0
21/11:00am 22.2 21.9 19.2 83 1.9 SE 19 26 10 14 1020.6 1020.3 0.0
21/10:30am 20.8 21.2 19.1 90 1.1 SE 15 20 8 11 1021.0 1020.7 0.0
21/10:22am 20.4 21.1 18.9 91 0.9 SE 13 15 7 8 1021.2 1020.9 0.0
21/10:00am 19.9 22.7 18.9 94 0.6 SSE 2 9 1 5 1021.4 1021.1 0.0
21/09:30am 19.6 22.8 18.9 96 0.4 CALM 0 0 0 0 1021.4 1021.1 0.0
21/09:21am 19.5 22.7 18.8 96 0.4 CALM 0 0 0 0 1021.6 1021.3 0.0
21/09:00am 19.3 22.4 18.6 96 0.4 CALM 0 0 0 0 1021.6 1021.3 2.8
21/08:30am 19.2 22.3 18.7 97 0.3 CALM 0 0 0 0 1021.4 1021.1 2.8
21/08:00am 19.0 22.1 18.7 98 0.2 CALM 0 0 0 0 1021.2 1020.9 2.8
21/07:30am 18.7 21.7 18.4 98 0.2 CALM 0 0 0 0 1020.8 1020.5 2.8
21/07:00am 18.6 21.6 18.4 99 0.1 CALM 0 6 0 3 1020.3 1020.0 2.8
21/06:34am 18.6 19.9 18.4 99 0.1 SSW 9 13 5 7 1019.8 1019.5 2.8
21/06:30am 18.6 19.5 18.4 99 0.1 SSW 11 17 6 9 1019.6 1019.3 2.8
21/06:00am 18.5 20.1 18.2 98 0.2 S 7 13 4 7 1019.5 1019.2 2.6
21/05:30am 18.4 21.3 18.1 98 0.2 CALM 0 0 0 0 1019.6 1019.3 2.6
21/05:00am 18.5 21.4 18.2 98 0.2 CALM 0 0 0 0 1019.5 1019.2 2.6
21/04:39am 18.7 20.4 18.4 98 0.2 NW 7 9 4 5 1019.5 1019.2 2.6
21/04:30am 18.7 20.0 18.4 98 0.2 NNW 9 11 5 6 1019.5 1019.2 2.6
21/04:00am 18.8 20.5 18.5 98 0.2 WNW 7 9 4 5 1019.5 1019.2 2.6
21/03:30am 18.9 22.0 18.6 98 0.2 CALM 0 0 0 0 1018.9 1018.6 2.6
21/03:00am 18.9 21.5 18.4 97 0.3 SSW 2 9 1 5 1018.7 1018.4 2.6
21/02:30am 18.9 21.1 18.4 97 0.3 E 4 7 2 4 1018.6 1018.3 2.6
21/02:00am 18.9 20.7 18.4 97 0.3 SE 6 7 3 4 1018.7 1018.4 2.6
21/01:30am 19.0 20.4 18.7 98 0.2 S 9 13 5 7 1019.3 1019.0 2.4

Other Formats:

Comma delimited format used in spreadsheet applications
http://www.bom.gov.au/fwo/IDS60801/IDS60801.95658.axf

JavaScript Object Notation format (JSON) in row-major order
http://www.bom.gov.au/fwo/IDS60801/IDS60801.95658.json